Time;durP1;ratioP1;P1;durP2;ratioP2;P2;SDS_P1;SDS_P2;PMS_P1;PMS_P2;Temp;Humidity;BMP_temperature;BMP_pressure;BME280_temperature;BME280_humidity;BME280_pressure;Samples;Min_cycle;Max_cycle;Signal;HPM_P1;HPM_P2
2022/04/30 00:00:29;;;;;;;9.70;6.65;;;;;;;7.86;71.54;102049.98;1645316;86;28192;-59
2022/04/30 00:02:55;;;;;;;10.63;5.60;;;;;;;7.76;71.34;102049.16;1645422;86;25486;-59
2022/04/30 00:05:21;;;;;;;9.78;6.17;;;;;;;7.64;71.33;102050.72;1645508;87;25770;-59
2022/04/30 00:07:50;;;;;;;11.35;6.55;;;;;;;7.55;71.24;102053.06;1641532;87;25792;-59
2022/04/30 00:10:19;;;;;;;15.90;7.03;;;;;;;7.49;71.77;102045.73;1640329;87;43377;-59
2022/04/30 00:12:45;;;;;;;15.63;6.70;;;;;;;7.45;71.90;102054.91;1640235;87;27488;-59
2022/04/30 00:15:12;;;;;;;11.57;6.40;;;;;;;7.41;72.04;102052.48;1640154;86;25789;-59
2022/04/30 00:17:39;;;;;;;8.48;6.08;;;;;;;7.36;72.00;102046.89;1640304;86;25811;-59
2022/04/30 00:20:08;;;;;;;14.05;7.90;;;;;;;7.31;71.93;102051.64;1640187;86;25867;-60
2022/04/30 00:22:36;;;;;;;26.90;8.15;;;;;;;7.26;71.89;102050.16;1640248;86;25744;-59
2022/04/30 00:25:04;;;;;;;23.98;7.83;;;;;;;7.19;71.91;102046.48;1640387;86;27557;-59
2022/04/30 00:27:31;;;;;;;10.60;7.83;;;;;;;7.13;71.92;102048.13;1640022;87;25847;-59
2022/04/30 00:29:58;;;;;;;12.03;7.15;;;;;;;7.08;72.21;102049.35;1640211;86;25835;-60
2022/04/30 00:32:25;;;;;;;12.82;7.12;;;;;;;7.06;72.34;102050.75;1642908;86;25997;-60
2022/04/30 00:34:52;;;;;;;10.03;7.58;;;;;;;7.01;72.60;102045.64;1648966;86;25776;-60
2022/04/30 00:37:19;;;;;;;10.55;6.53;;;;;;;7.02;72.71;102046.52;1649299;86;27360;-60
2022/04/30 00:39:46;;;;;;;14.90;7.05;;;;;;;7.02;73.09;102045.19;1648764;87;25719;-60
2022/04/30 00:42:14;;;;;;;13.90;6.10;;;;;;;7.02;73.12;102040.69;1648986;87;25751;-60
2022/04/30 00:44:43;;;;;;;10.60;6.33;;;;;;;7.03;73.91;102033.55;1649005;86;26777;-61
2022/04/30 00:47:18;;;;;;;13.53;6.87;;;;;;;7.04;73.52;102036.13;1649101;86;25711;-60
2022/04/30 00:49:47;;;;;;;6.45;5.37;;;;;;;7.07;73.66;102043.12;1645898;86;27509;-59
2022/04/30 00:52:16;;;;;;;9.90;5.67;;;;;;;7.10;73.90;102042.97;1640193;86;25728;-59
2022/04/30 00:54:50;;;;;;;8.43;5.87;;;;;;;7.13;74.18;102038.77;1645798;87;25721;-60
2022/04/30 00:57:22;;;;;;;9.18;4.92;;;;;;;7.13;74.06;102043.27;1641404;86;32752;-60
2022/04/30 00:59:54;;;;;;;8.15;4.95;;;;;;;7.16;74.37;102042.63;1642989;85;25551;-60
2022/04/30 01:02:21;;;;;;;11.63;5.58;;;;;;;7.13;73.98;102039.25;1649091;85;27513;-60
2022/04/30 01:05:10;;;;;;;12.70;5.50;;;;;;;7.12;74.30;102041.08;1652831;86;25907;-60
2022/04/30 01:07:39;;;;;;;12.35;5.33;;;;;;;7.10;74.07;102038.95;1653388;86;25814;-60
2022/04/30 01:10:09;;;;;;;7.85;5.42;;;;;;;7.12;74.29;102038.41;1652417;86;26735;-60
2022/04/30 01:12:37;;;;;;;6.65;5.12;;;;;;;7.14;74.15;102038.31;1653445;86;25748;-59
2022/04/30 01:15:06;;;;;;;5.97;4.85;;;;;;;7.13;74.20;102036.09;1653589;86;28229;-60
2022/04/30 01:17:35;;;;;;;9.05;4.75;;;;;;;7.14;74.18;102037.82;1653386;85;25730;-59
2022/04/30 01:20:04;;;;;;;7.67;4.87;;;;;;;7.15;74.32;102030.19;1653513;86;25821;-59
2022/04/30 01:22:36;;;;;;;7.08;4.92;;;;;;;7.15;74.14;102028.84;1652727;86;25813;-59
2022/04/30 01:25:05;;;;;;;5.87;4.47;;;;;;;7.14;74.04;102026.27;1653164;85;25489;-59
2022/04/30 01:27:32;;;;;;;5.78;4.35;;;;;;;7.14;73.92;102027.61;1653127;86;27546;-59
2022/04/30 01:30:05;;;;;;;7.87;4.72;;;;;;;7.10;73.97;102026.02;1653168;85;25830;-60
2022/04/30 01:38:07;;;;;;;6.92;4.47;;;;;;;7.13;74.13;102025.38;1654563;86;25791;-60
2022/04/30 01:40:34;;;;;;;5.03;4.15;;;;;;;7.17;74.25;102026.96;1655027;86;27614;-59
2022/04/30 01:43:04;;;;;;;7.62;4.67;;;;;;;7.17;74.06;102014.92;1654586;84;25807;-59
2022/04/30 01:45:33;;;;;;;8.45;4.80;;;;;;;7.17;74.35;102016.74;1634074;86;25818;-59
2022/04/30 01:48:02;;;;;;;7.65;4.80;;;;;;;7.11;74.27;102021.95;1654387;86;26512;-59
2022/04/30 01:50:29;;;;;;;17.05;5.08;;;;;;;7.01;73.95;102015.36;1654736;86;25818;-59
2022/04/30 01:52:56;;;;;;;18.98;5.17;;;;;;;6.98;74.04;102012.38;1654873;86;27495;-61
2022/04/30 01:55:23;;;;;;;18.48;6.40;;;;;;;6.95;74.02;102012.53;1650069;84;25825;-59
2022/04/30 01:57:53;;;;;;;12.68;6.03;;;;;;;6.92;73.89;102014.52;1608286;88;25681;-59
2022/04/30 02:00:20;;;;;;;31.52;6.33;;;;;;;6.89;73.84;102009.71;1594092;88;26020;-59
2022/04/30 02:02:49;;;;;;;34.78;6.90;;;;;;;6.86;73.82;102015.70;1616607;88;25776;-60
2022/04/30 02:05:20;;;;;;;19.27;6.33;;;;;;;6.82;73.76;102011.44;1620797;88;27548;-59
2022/04/30 02:07:58;;;;;;;12.88;6.28;;;;;;;6.73;73.58;102012.33;1594574;88;25802;-59
2022/04/30 02:10:27;;;;;;;34.58;6.58;;;;;;;6.68;73.55;102011.72;1620696;88;25825;-59
2022/04/30 02:12:55;;;;;;;37.95;7.75;;;;;;;6.62;73.68;102016.51;1620314;88;25975;-59
2022/04/30 02:15:27;;;;;;;42.90;7.22;;;;;;;6.57;73.74;102011.41;1620711;88;25760;-59
2022/04/30 02:17:53;;;;;;;39.35;7.20;;;;;;;6.52;73.76;102006.78;1619249;88;27519;-59
2022/04/30 02:20:29;;;;;;;23.85;6.53;;;;;;;6.47;73.85;102003.46;1620700;88;25808;-59
2022/04/30 02:23:05;;;;;;;22.80;6.22;;;;;;;6.41;74.04;102001.96;1620544;88;25851;-58
2022/04/30 02:25:32;;;;;;;17.32;6.55;;;;;;;6.36;73.92;102004.91;1620496;88;26026;-58
2022/04/30 02:28:04;;;;;;;9.38;5.25;;;;;;;6.33;74.00;102006.38;1620576;88;25781;-59
2022/04/30 02:30:35;;;;;;;7.22;5.40;;;;;;;6.32;74.20;101999.79;1620517;88;27502;-59
2022/04/30 02:33:11;;;;;;;10.32;5.67;;;;;;;6.31;74.68;102002.92;1628420;86;25769;-59
2022/04/30 02:35:44;;;;;;;8.03;4.92;;;;;;;6.29;74.69;102002.13;1645417;86;25833;-59
2022/04/30 02:38:10;;;;;;;7.25;5.28;;;;;;;6.26;74.99;102005.82;1645241;87;26749;-59
2022/04/30 02:40:40;;;;;;;8.68;5.20;;;;;;;6.20;75.20;101999.47;1648283;85;25936;-59
2022/04/30 02:43:10;;;;;;;8.08;4.70;;;;;;;6.17;75.42;102001.42;1673370;84;28258;-59
2022/04/30 02:45:39;;;;;;;6.75;4.83;;;;;;;6.19;75.43;102001.73;1673117;85;25478;-59
2022/04/30 02:48:09;;;;;;;6.53;4.85;;;;;;;6.22;75.70;101998.92;1673302;85;25710;-59
2022/04/30 02:50:37;;;;;;;8.28;4.97;;;;;;;6.27;76.15;101994.68;1654411;85;25834;-58
2022/04/30 02:53:05;;;;;;;6.12;4.75;;;;;;;6.28;76.06;101992.86;1645506;87;25747;-59
2022/04/30 02:55:33;;;;;;;15.90;5.78;;;;;;;6.29;76.12;101994.11;1645457;87;27550;-59
2022/04/30 03:00:48;;;;;;;14.05;5.15;;;;;;;6.37;76.27;101993.72;1644768;87;25846;-60
2022/04/30 03:03:33;;;;;;;14.28;5.12;;;;;;;6.42;76.28;101984.98;1644709;87;25940;-59
2022/04/30 03:06:01;;;;;;;7.47;4.65;;;;;;;6.48;76.22;101990.48;1644633;86;25486;-60
2022/04/30 03:08:28;;;;;;;11.90;5.70;;;;;;;6.53;76.45;101987.13;1644854;87;27502;-60
2022/04/30 03:10:57;;;;;;;14.85;5.15;;;;;;;6.60;76.52;101988.98;1644490;87;25558;-59
2022/04/30 03:13:25;;;;;;;8.63;5.17;;;;;;;6.67;76.54;101991.27;1644825;86;25787;-60
2022/04/30 03:15:55;;;;;;;8.35;5.62;;;;;;;6.71;76.58;101998.20;1644923;87;25830;-60
2022/04/30 03:23:43;;;;;;;9.48;4.87;;;;;;;6.86;76.29;102003.66;1644558;87;25794;-59
2022/04/30 03:26:12;;;;;;;13.13;3.77;;;;;;;6.91;76.27;101997.58;1644735;86;25782;-59
2022/04/30 03:28:40;;;;;;;6.12;5.05;;;;;;;6.91;75.97;102000.25;1642788;87;25897;-60
2022/04/30 03:31:10;;;;;;;5.45;4.15;;;;;;;6.88;75.71;102003.97;1643203;87;25491;-60
2022/04/30 03:33:38;;;;;;;8.40;4.28;;;;;;;6.86;75.52;102004.52;1652581;86;27607;-60
2022/04/30 03:36:06;;;;;;;10.40;5.08;;;;;;;6.83;75.37;102003.81;1656527;84;25822;-60
2022/04/30 03:38:33;;;;;;;5.75;4.25;;;;;;;6.80;75.59;102003.52;1657006;86;25788;-60
2022/04/30 03:41:00;;;;;;;8.75;4.92;;;;;;;6.78;75.43;101999.20;1656741;86;25893;-60
2022/04/30 03:43:27;;;;;;;13.62;7.28;;;;;;;6.69;75.14;102004.09;1656912;86;25710;-60
2022/04/30 03:45:54;;;;;;;5.92;4.65;;;;;;;6.64;75.26;102009.28;1656844;85;27333;-60
2022/04/30 03:48:21;;;;;;;7.17;4.58;;;;;;;6.58;75.22;102012.68;1656678;86;25678;-60
2022/04/30 03:50:48;;;;;;;11.65;5.15;;;;;;;6.56;75.31;102011.00;1687803;84;25794;-60
2022/04/30 03:53:15;;;;;;;20.88;9.05;;;;;;;6.55;75.46;102015.50;1698366;84;26609;-59
2022/04/30 03:55:42;;;;;;;11.70;5.60;;;;;;;6.55;75.42;102018.17;1698288;84;25762;-60
2022/04/30 03:58:08;;;;;;;6.55;4.72;;;;;;;6.54;75.44;102019.11;1698567;84;27617;-60
2022/04/30 04:00:35;;;;;;;7.80;4.70;;;;;;;6.51;75.22;102016.59;1698022;83;25738;-60
2022/04/30 04:03:03;;;;;;;18.87;5.45;;;;;;;6.51;75.24;102017.92;1692577;84;25856;-59
2022/04/30 04:05:29;;;;;;;12.60;5.60;;;;;;;6.50;75.37;102019.35;1652599;86;25879;-60
2022/04/30 04:08:00;;;;;;;8.03;5.72;;;;;;;6.47;75.42;102018.16;1652663;86;25695;-60
2022/04/30 04:10:27;;;;;;;10.03;4.85;;;;;;;6.46;75.51;102019.10;1652759;86;27491;-59
2022/04/30 04:17:37;;;;;;;10.13;6.03;;;;;;;6.49;75.74;102014.48;1652629;86;25722;-60
2022/04/30 04:18:07;;;;;;;13.53;7.03;;;;;;;6.60;76.29;102017.94;1646450;86;25922;-60
2022/04/30 04:20:34;;;;;;;15.85;6.87;;;;;;;6.68;76.43;102013.54;1645871;86;25942;-60
2022/04/30 04:23:01;;;;;;;12.37;7.00;;;;;;;6.78;76.74;102015.24;1650141;86;27646;-60
2022/04/30 04:28:15;;;;;;;11.18;6.95;;;;;;;6.94;77.25;102020.66;1625684;86;25772;-60
2022/04/30 04:30:42;;;;;;;19.07;7.33;;;;;;;7.03;77.28;102022.35;1652902;86;25988;-59
2022/04/30 04:33:09;;;;;;;20.43;9.53;;;;;;;7.17;77.67;102024.77;1650630;86;25747;-59
2022/04/30 04:35:35;;;;;;;16.10;9.00;;;;;;;7.23;77.86;102026.22;1647434;87;27609;-60
2022/04/30 04:38:02;;;;;;;13.35;8.60;;;;;;;7.31;77.96;102023.53;1628796;87;25786;-60
2022/04/30 04:40:29;;;;;;;12.37;8.60;;;;;;;7.43;78.23;102023.81;1647768;86;25719;-60
2022/04/30 04:42:56;;;;;;;18.85;8.65;;;;;;;7.53;78.11;102027.68;1649181;86;25836;-60
2022/04/30 04:45:26;;;;;;;15.95;8.48;;;;;;;7.62;78.23;102019.13;1650017;85;25731;-60
2022/04/30 04:47:52;;;;;;;20.05;7.80;;;;;;;7.66;78.48;102018.52;1644767;85;27530;-60
2022/04/30 04:50:21;;;;;;;11.60;8.15;;;;;;;7.73;78.63;102021.23;1639706;86;25655;-60
2022/04/30 04:52:48;;;;;;;14.30;7.87;;;;;;;7.82;78.84;102016.69;1636355;86;25501;-60
2022/04/30 04:55:17;;;;;;;10.50;6.97;;;;;;;7.98;78.93;102024.69;1636520;87;25819;-59
2022/04/30 04:57:43;;;;;;;15.98;7.78;;;;;;;8.13;79.11;102010.88;1639645;87;25531;-60
2022/04/30 05:00:12;;;;;;;14.50;7.35;;;;;;;8.25;78.75;102015.98;1644650;86;28531;-60
2022/04/30 05:02:39;;;;;;;16.75;6.78;;;;;;;8.37;78.78;102016.23;1644900;87;25758;-61
2022/04/30 05:05:08;;;;;;;8.00;6.45;;;;;;;8.51;78.69;102013.64;1644508;86;25655;-59
2022/04/30 05:07:34;;;;;;;7.75;6.08;;;;;;;8.66;78.65;102017.19;1644894;87;25822;-60
2022/04/30 05:10:01;;;;;;;14.93;6.70;;;;;;;8.82;78.52;102018.46;1644828;87;26446;-60
2022/04/30 05:12:28;;;;;;;11.78;6.92;;;;;;;8.96;78.48;102018.95;1644793;87;27557;-60
2022/04/30 05:14:55;;;;;;;17.95;7.80;;;;;;;9.06;78.05;102020.11;1644941;87;25682;-60
2022/04/30 05:17:21;;;;;;;13.58;7.20;;;;;;;9.11;77.59;102030.56;1644751;86;25759;-60
2022/04/30 05:19:48;;;;;;;12.85;7.40;;;;;;;9.05;76.79;102026.44;1644924;87;25959;-60
2022/04/30 05:22:15;;;;;;;13.48;7.42;;;;;;;9.06;76.86;102026.83;1644504;86;25766;-60
2022/04/30 05:24:42;;;;;;;17.02;7.55;;;;;;;9.06;76.69;102029.52;1644644;87;27485;-60
2022/04/30 05:27:09;;;;;;;10.65;6.80;;;;;;;9.01;76.66;102029.41;1645311;86;25734;-60
2022/04/30 05:29:36;;;;;;;15.85;6.83;;;;;;;8.89;76.54;102029.20;1644637;87;26010;-60
2022/04/30 05:32:04;;;;;;;9.43;7.12;;;;;;;8.81;76.99;102026.13;1645974;87;26767;-60
2022/04/30 05:34:31;;;;;;;8.63;6.62;;;;;;;8.80;77.24;102026.23;1653152;86;25840;-60
2022/04/30 05:36:59;;;;;;;12.05;6.35;;;;;;;8.80;77.30;102030.25;1657171;86;27456;-60
2022/04/30 05:39:26;;;;;;;28.12;17.92;;;;;;;8.78;77.67;102034.38;1656891;86;25704;-60
2022/04/30 05:41:54;;;;;;;7.33;6.50;;;;;;;8.76;78.03;102032.27;1656878;85;25684;-60
2022/04/30 05:44:21;;;;;;;9.83;7.45;;;;;;;8.74;78.93;102032.33;1656745;86;25793;-60
2022/04/30 05:46:48;;;;;;;10.68;6.80;;;;;;;8.79;78.64;102032.05;1656966;85;25776;-60
2022/04/30 05:49:15;;;;;;;10.58;6.47;;;;;;;8.85;78.82;102027.67;1656105;85;27698;-60
2022/04/30 05:51:43;;;;;;;9.90;6.53;;;;;;;8.96;79.34;102033.72;1652480;86;25998;-60
2022/04/30 05:54:10;;;;;;;18.05;7.58;;;;;;;9.03;79.73;102035.55;1652752;86;25754;-60
2022/04/30 05:56:37;;;;;;;8.75;5.97;;;;;;;9.05;79.78;102041.20;1652872;85;25953;-60
2022/04/30 05:59:04;;;;;;;10.58;7.37;;;;;;;9.12;79.72;102040.81;1652912;85;27297;-60
2022/04/30 06:01:31;;;;;;;7.15;5.70;;;;;;;9.18;79.77;102039.95;1652756;86;27489;-58
2022/04/30 06:03:58;;;;;;;10.90;6.33;;;;;;;9.30;79.94;102036.97;1653645;85;25790;-59
2022/04/30 06:06:26;;;;;;;9.73;5.95;;;;;;;9.37;79.75;102032.09;1654987;85;25990;-59
2022/04/30 06:08:53;;;;;;;10.63;5.80;;;;;;;9.45;79.68;102039.67;1654677;86;25850;-59
2022/04/30 06:11:21;;;;;;;11.00;6.10;;;;;;;9.57;79.53;102029.95;1654835;86;25814;-59
2022/04/30 06:13:48;;;;;;;8.83;6.05;;;;;;;9.66;79.37;102032.90;1654603;86;27488;-60
2022/04/30 06:16:15;;;;;;;10.80;5.65;;;;;;;9.77;79.28;102032.19;1654820;86;25807;-59
2022/04/30 06:18:42;;;;;;;9.25;6.10;;;;;;;9.86;79.00;102027.56;1654629;85;25705;-59
2022/04/30 06:21:09;;;;;;;6.42;5.25;;;;;;;9.94;78.67;102026.22;1654662;86;25809;-60
2022/04/30 06:23:38;;;;;;;8.70;6.22;;;;;;;10.01;78.73;102026.19;1654713;86;25779;-60
2022/04/30 06:26:04;;;;;;;11.57;6.65;;;;;;;10.10;78.49;102033.64;1654829;85;27524;-59
2022/04/30 06:28:31;;;;;;;8.83;5.05;;;;;;;10.18;78.49;102031.77;1654410;86;25751;-59
2022/04/30 06:31:00;;;;;;;10.72;5.67;;;;;;;10.29;78.03;102035.10;1654574;86;25704;-59
2022/04/30 06:33:27;;;;;;;8.78;6.22;;;;;;;10.37;77.79;102031.44;1652314;86;25800;-59
2022/04/30 06:35:54;;;;;;;8.38;6.97;;;;;;;10.50;77.78;102035.50;1652857;84;25788;-59
2022/04/30 06:38:22;;;;;;;9.60;5.45;;;;;;;10.60;77.56;102033.03;1652692;85;27509;-59
2022/04/30 06:40:49;;;;;;;12.07;6.05;;;;;;;10.72;76.98;102033.55;1641283;86;25797;-59
2022/04/30 06:43:16;;;;;;;8.00;4.40;;;;;;;10.81;76.60;102027.99;1641051;86;25809;-59
2022/04/30 06:45:43;;;;;;;9.45;6.70;;;;;;;10.92;75.35;102031.30;1651916;86;26605;-59
2022/04/30 06:48:10;;;;;;;9.13;5.20;;;;;;;11.01;75.59;102028.43;1652640;86;25966;-59
2022/04/30 06:50:37;;;;;;;9.78;5.33;;;;;;;11.12;75.12;102029.39;1652665;86;27375;-59
2022/04/30 06:58:44;;;;;;;6.67;4.80;;;;;;;11.42;74.24;102022.78;1653034;86;26615;-59
2022/04/30 07:01:30;;;;;;;7.00;4.40;;;;;;;11.54;73.62;102022.87;1652695;86;25829;-59
2022/04/30 07:04:01;;;;;;;14.98;4.80;;;;;;;11.64;71.99;102021.23;1653000;85;28413;-59
2022/04/30 07:06:22;;;;;;;7.62;4.67;;;;;;;11.73;71.84;102017.86;1653776;86;26163;-59
2022/04/30 07:08:49;;;;;;;10.38;5.10;;;;;;;11.83;71.57;102019.87;1654497;86;25800;-59
2022/04/30 07:11:17;;;;;;;7.53;4.28;;;;;;;11.92;71.81;102018.31;1654802;86;25812;-59
2022/04/30 07:13:44;;;;;;;9.50;3.85;;;;;;;12.08;71.48;102022.96;1654638;85;25787;-58
2022/04/30 07:16:11;;;;;;;4.45;3.72;;;;;;;12.23;70.94;102019.59;1654715;86;27539;-59
2022/04/30 07:18:37;;;;;;;5.47;4.17;;;;;;;12.36;70.74;102017.70;1654374;86;25774;-59
2022/04/30 07:21:05;;;;;;;10.35;3.15;;;;;;;12.49;70.93;102016.27;1640884;87;25580;-59
2022/04/30 07:23:33;;;;;;;3.20;2.37;;;;;;;12.66;70.28;102008.70;1640532;87;25777;-59
2022/04/30 07:26:00;;;;;;;7.10;2.58;;;;;;;12.79;69.55;102012.64;1654181;86;25760;-59
2022/04/30 07:28:30;;;;;;;4.67;2.45;;;;;;;12.94;69.69;102013.28;1654690;86;29756;-59
2022/04/30 07:30:56;;;;;;;10.32;3.40;;;;;;;13.11;69.69;102005.17;1654371;86;25793;-59
2022/04/30 07:33:22;;;;;;;6.62;2.90;;;;;;;13.27;68.53;102000.25;1690959;83;25772;-59
2022/04/30 07:35:49;;;;;;;6.55;2.50;;;;;;;13.42;69.00;102000.89;1702861;83;25916;-59
2022/04/30 07:38:16;;;;;;;4.47;2.90;;;;;;;13.56;68.70;102005.67;1703002;84;26085;-58
2022/04/30 07:40:43;;;;;;;6.35;3.30;;;;;;;13.63;65.90;101999.28;1702894;83;28290;-59
2022/04/30 07:43:10;;;;;;;4.97;2.87;;;;;;;13.69;64.29;102006.37;1702954;84;25703;-59
2022/04/30 07:45:38;;;;;;;6.12;2.58;;;;;;;13.74;65.24;102003.28;1702908;83;25720;-58
2022/04/30 07:48:06;;;;;;;5.90;2.85;;;;;;;13.80;65.51;101999.22;1702807;84;25806;-59
2022/04/30 07:50:36;;;;;;;5.17;3.00;;;;;;;13.87;65.95;101997.72;1670210;84;25797;-59
2022/04/30 07:53:06;;;;;;;5.75;2.60;;;;;;;13.98;65.82;102000.90;1652783;86;27383;-58
2022/04/30 07:55:34;;;;;;;5.53;2.40;;;;;;;14.08;64.54;102004.52;1652476;86;25759;-58
2022/04/30 07:58:02;;;;;;;10.45;2.85;;;;;;;14.19;61.47;102001.78;1652559;86;25767;-60
2022/04/30 08:00:30;;;;;;;20.75;4.17;;;;;;;14.25;63.32;102001.25;1652828;85;26651;-60
2022/04/30 08:02:58;;;;;;;6.90;2.22;;;;;;;14.39;59.53;102001.42;1652382;86;25793;-60
2022/04/30 08:05:26;;;;;;;4.45;2.05;;;;;;;14.49;60.69;101996.58;1654569;86;28353;-60
2022/04/30 08:07:56;;;;;;;3.85;1.82;;;;;;;14.62;60.77;101998.61;1654585;86;25809;-60
2022/04/30 08:10:24;;;;;;;3.27;2.10;;;;;;;14.76;59.61;102000.63;1654682;86;25737;-60
2022/04/30 08:12:54;;;;;;;2.70;2.10;;;;;;;14.98;55.62;101995.54;1654858;86;26461;-59
2022/04/30 08:15:24;;;;;;;7.50;4.22;;;;;;;15.16;54.54;101991.71;1624109;88;25449;-59
2022/04/30 08:17:53;;;;;;;6.20;2.40;;;;;;;15.28;56.00;101986.56;1646713;86;28148;-59
2022/04/30 08:20:20;;;;;;;2.98;1.92;;;;;;;15.45;55.83;101982.31;1640555;86;26138;-59
2022/04/30 08:22:50;;;;;;;9.73;2.50;;;;;;;15.62;55.38;101978.56;1640902;87;25801;-59
2022/04/30 08:25:18;;;;;;;3.52;1.60;;;;;;;15.78;54.36;101980.73;1640679;87;25857;-59
2022/04/30 08:27:45;;;;;;;3.65;1.92;;;;;;;15.94;54.19;101981.06;1640945;87;25672;-59
2022/04/30 08:30:13;;;;;;;3.72;2.52;;;;;;;16.07;53.57;101982.14;1640464;87;26875;-59
2022/04/30 08:32:40;;;;;;;7.92;2.33;;;;;;;16.15;54.21;101980.08;1641647;87;26151;-59
2022/04/30 08:35:08;;;;;;;5.10;1.90;;;;;;;16.25;52.97;101974.14;1644919;86;25717;-59
2022/04/30 08:37:35;;;;;;;3.33;1.77;;;;;;;16.40;52.55;101973.69;1647253;86;25818;-59
2022/04/30 08:40:02;;;;;;;3.15;2.10;;;;;;;16.53;51.46;101977.45;1647947;86;25906;-59
2022/04/30 08:42:31;;;;;;;8.00;2.40;;;;;;;16.61;50.05;101974.86;1647402;85;27541;-59
2022/04/30 08:45:03;;;;;;;10.88;1.72;;;;;;;16.72;51.08;101963.83;1647406;87;25770;-59
2022/04/30 08:47:30;;;;;;;4.15;1.62;;;;;;;16.92;48.47;101965.13;1648543;85;25834;-59
2022/04/30 08:49:59;;;;;;;3.12;1.62;;;;;;;17.01;49.98;101966.98;1659809;85;25829;-59
2022/04/30 08:52:26;;;;;;;8.73;1.80;;;;;;;17.13;48.50;101958.61;1673155;85;25805;-59
2022/04/30 08:54:53;;;;;;;7.00;2.65;;;;;;;17.27;48.14;101952.69;1672678;85;27465;-60
2022/04/30 08:57:20;;;;;;;3.17;1.85;;;;;;;17.41;47.02;101954.52;1672717;85;25780;-60
2022/04/30 08:59:47;;;;;;;9.15;1.60;;;;;;;17.50;46.37;101949.53;1672933;85;25814;-60
2022/04/30 09:02:14;;;;;;;2.52;1.60;;;;;;;17.67;46.99;101951.41;1672725;85;25938;-60
2022/04/30 09:04:47;;;;;;;26.90;2.98;;;;;;;17.90;45.96;101954.18;1648938;85;25788;-60
2022/04/30 09:07:21;;;;;;;8.45;1.90;;;;;;;18.13;46.10;101947.78;1643097;87;28168;-60
2022/04/30 09:10:00;;;;;;;11.12;2.90;;;;;;;18.39;45.50;101949.19;1642217;86;25984;-61
2022/04/30 09:12:29;;;;;;;4.87;2.08;;;;;;;18.67;45.41;101946.31;1622013;87;25874;-58
2022/04/30 09:14:56;;;;;;;6.78;2.20;;;;;;;18.99;45.36;101939.86;1641706;86;25981;-59
2022/04/30 09:17:25;;;;;;;10.05;2.72;;;;;;;19.33;45.01;101934.87;1636236;87;25701;-59
2022/04/30 09:20:01;;;;;;;5.65;1.92;;;;;;;19.67;44.63;101933.92;1636068;87;27438;-59
2022/04/30 09:22:38;;;;;;;3.47;1.82;;;;;;;20.03;42.61;101930.06;1636004;86;25682;-60
2022/04/30 09:25:12;;;;;;;4.28;1.57;;;;;;;20.44;42.85;101927.28;1636470;87;25702;-59
2022/04/30 09:27:45;;;;;;;4.75;1.60;;;;;;;20.94;40.61;101926.67;1636126;87;25796;-60
2022/04/30 09:30:29;;;;;;;5.33;1.72;;;;;;;21.22;37.33;101927.05;1636400;86;25475;-59
2022/04/30 09:33:05;;;;;;;4.53;1.50;;;;;;;21.63;38.32;101923.24;1636951;87;28435;-60
2022/04/30 09:38:26;;;;;;;3.02;1.65;;;;;;;22.85;37.70;101912.36;1639401;86;25709;-59
2022/04/30 09:40:57;;;;;;;4.37;2.37;;;;;;;23.58;37.61;101914.64;1620133;87;26609;-60
2022/04/30 09:43:34;;;;;;;6.15;2.30;;;;;;;24.23;35.15;101908.30;1638408;86;25996;-60
2022/04/30 09:46:04;;;;;;;10.30;2.02;;;;;;;24.75;35.35;101910.23;1638317;86;27548;-60
2022/04/30 09:54:02;;;;;;;2.55;1.95;;;;;;;26.10;31.74;101896.34;1652232;85;25865;-60
2022/04/30 09:56:44;;;;;;;3.62;2.02;;;;;;;26.58;29.72;101899.88;1652995;85;25757;-60
2022/04/30 09:59:15;;;;;;;4.58;1.65;;;;;;;26.95;30.03;101892.77;1652645;86;27516;-59
2022/04/30 10:01:44;;;;;;;2.62;1.37;;;;;;;27.46;30.32;101893.81;1652370;86;25668;-59
2022/04/30 10:04:17;;;;;;;6.03;1.80;;;;;;;28.11;28.00;101889.08;1652610;86;25762;-59
2022/04/30 10:06:50;;;;;;;4.20;1.52;;;;;;;27.95;28.04;101883.55;1652977;86;25837;-59
2022/04/30 10:09:21;;;;;;;4.22;1.50;;;;;;;27.19;27.78;101882.02;1652514;86;32975;-59
2022/04/30 10:12:12;;;;;;;4.58;1.62;;;;;;;26.21;27.35;101880.53;1652288;86;27534;-60
2022/04/30 10:14:47;;;;;;;13.53;2.15;;;;;;;26.45;27.33;101869.86;1653044;86;25741;-60
2022/04/30 10:17:19;;;;;;;2.92;1.50;;;;;;;25.84;27.99;101873.20;1616970;86;25893;-60
2022/04/30 10:20:18;;;;;;;3.70;1.50;;;;;;;24.77;29.79;101867.40;1616815;87;25838;-59
2022/04/30 10:22:53;;;;;;;5.25;1.67;;;;;;;24.21;30.79;101871.89;1678067;85;25981;-60
2022/04/30 10:25:48;;;;;;;2.47;1.42;;;;;;;24.97;30.08;101864.18;1678979;84;27547;-59
2022/04/30 10:28:21;;;;;;;5.75;1.47;;;;;;;25.35;29.95;101864.20;1677772;85;25831;-59
2022/04/30 10:31:10;;;;;;;1.87;1.22;;;;;;;25.21;29.68;101856.95;1677581;84;25760;-59
2022/04/30 10:33:51;;;;;;;3.67;1.37;;;;;;;25.68;29.45;101854.33;1658532;85;25779;-59
2022/04/30 10:36:20;;;;;;;2.98;1.22;;;;;;;25.62;28.94;101859.61;1629309;86;25930;-59
2022/04/30 10:39:04;;;;;;;2.77;1.50;;;;;;;25.42;28.60;101854.59;1610336;87;27210;-60
2022/04/30 10:41:29;;;;;;;6.50;1.42;;;;;;;25.05;27.72;101849.39;1609991;89;25724;-60
2022/04/30 10:44:02;;;;;;;8.30;1.70;;;;;;;25.74;27.89;101850.17;1615291;88;25968;-60
2022/04/30 10:46:39;;;;;;;6.62;1.40;;;;;;;26.72;27.89;101844.40;1620471;88;25805;-59
2022/04/30 10:49:07;;;;;;;7.58;1.62;;;;;;;27.36;27.69;101842.30;1620683;87;26462;-60
2022/04/30 10:51:40;;;;;;;6.72;1.80;;;;;;;27.14;27.10;101839.05;1620604;87;27474;-60
2022/04/30 10:54:18;;;;;;;5.78;1.67;;;;;;;26.75;26.23;101840.37;1620693;87;25826;-60
2022/04/30 10:56:46;;;;;;;6.60;1.62;;;;;;;26.38;27.34;101840.91;1620539;87;25771;-60
2022/04/30 10:59:22;;;;;;;4.37;1.77;;;;;;;26.13;27.37;101839.39;1620862;87;25819;-60
2022/04/30 11:01:50;;;;;;;7.37;1.62;;;;;;;25.74;28.36;101841.07;1620423;87;25851;-60
2022/04/30 11:04:19;;;;;;;2.37;1.47;;;;;;;25.43;28.00;101835.62;1622099;88;27457;-60
2022/04/30 11:06:52;;;;;;;4.15;1.47;;;;;;;25.00;28.61;101841.76;1598259;89;25995;-59
2022/04/30 11:09:21;;;;;;;6.65;1.57;;;;;;;24.57;28.86;101833.72;1623063;87;32558;-60
2022/04/30 11:11:50;;;;;;;5.53;1.35;;;;;;;24.12;29.82;101840.11;1600343;88;25957;-60
2022/04/30 11:14:19;;;;;;;9.98;2.17;;;;;;;23.79;29.52;101829.16;1594041;89;25832;-60
2022/04/30 11:16:51;;;;;;;5.90;1.90;;;;;;;23.23;29.95;101836.23;1622337;88;27523;-60
2022/04/30 11:19:21;;;;;;;3.92;1.45;;;;;;;22.74;30.41;101836.90;1595071;89;25864;-60
2022/04/30 11:21:51;;;;;;;4.83;1.47;;;;;;;22.34;31.02;101831.70;1622714;88;25822;-59
2022/04/30 11:24:28;;;;;;;6.35;1.80;;;;;;;21.94;31.72;101840.16;1622796;87;25917;-60
2022/04/30 11:27:03;;;;;;;2.50;1.30;;;;;;;21.68;32.76;101835.94;1622700;88;25546;-59
2022/04/30 11:29:27;;;;;;;2.25;1.62;;;;;;;21.18;34.43;101840.02;1621539;88;27548;-59
2022/04/30 11:31:57;;;;;;;10.20;1.87;;;;;;;20.70;35.60;101838.70;1598156;89;25869;-60
2022/04/30 11:34:25;;;;;;;4.40;2.15;;;;;;;20.37;37.27;101849.23;1580554;90;25834;-60
2022/04/30 11:36:56;;;;;;;6.40;2.10;;;;;;;19.79;39.77;101845.70;1585653;89;25848;-60
2022/04/30 11:39:24;;;;;;;6.92;2.05;;;;;;;19.08;41.29;101848.88;1599621;89;25932;-60
2022/04/30 11:41:53;;;;;;;11.68;2.67;;;;;;;18.52;42.62;101845.71;1599509;89;27688;-60
2022/04/30 11:44:24;;;;;;;3.08;2.05;;;;;;;18.05;44.23;101854.65;1603183;89;25772;-59
2022/04/30 11:46:53;;;;;;;5.45;2.20;;;;;;;17.68;45.07;101852.96;1608164;88;25834;-60
2022/04/30 11:49:24;;;;;;;7.62;2.20;;;;;;;17.32;46.02;101846.16;1608226;88;25805;-59
2022/04/30 11:51:55;;;;;;;12.00;2.50;;;;;;;17.05;46.19;101845.20;1608081;87;25779;-59
2022/04/30 11:54:24;;;;;;;4.17;2.05;;;;;;;16.98;46.23;101843.59;1609304;88;27559;-59
2022/04/30 11:56:52;;;;;;;10.43;2.17;;;;;;;17.02;46.65;101840.93;1608238;88;25521;-59
2022/04/30 11:59:38;;;;;;;7.28;2.40;;;;;;;16.92;47.10;101836.51;1608005;89;25838;-59
2022/04/30 12:02:09;;;;;;;7.67;2.65;;;;;;;16.87;47.07;101835.60;1607180;88;25953;-59
2022/04/30 12:04:43;;;;;;;8.75;2.20;;;;;;;16.86;47.35;101836.13;1608651;89;25492;-59
2022/04/30 12:07:13;;;;;;;4.58;2.52;;;;;;;16.81;47.03;101838.94;1608575;89;27495;-59
2022/04/30 12:09:53;;;;;;;5.55;2.02;;;;;;;16.82;46.96;101830.63;1608433;89;25653;-59